British Integrity — MGGF9 — position and weather

sailwx.info

Track history (hours):
 
Tides and Currents Weather Stations Pressure Air Temp Water Temp Dewpoint Dewpoint Depression Visibility Wind Speed Wind Dir Waves Ship Positions

British Integrity

Last reported at 2018-Jun-17 02:44 UTC. Time now 2018-Jun-25 03:43 UTC.
Position N 05°12' E 000°11'.
Warning: this ship's position is 8 days out of date.

Type: Tanker. MMSI: 232366000.

Date/timePositionNaut miles runAvg speedWind from/ knotsBaromVisibWave heightAir tempDewpointWater temp
2018-Jun-17 02:44N 05°12' E 000°11'2 9.3
2018-Jun-17 02:28N 05°13' E 000°13'5 9.4
2018-Jun-17 01:54N 05°16' E 000°18'4 9.7
2018-Jun-17 01:30N 05°18' E 000°22'5 9.8
2018-Jun-17 00:59N 05°20' E 000°26'5 9.8
2018-Jun-17 00:30N 05°21' E 000°31'5 9.7
2018-Jun-17 00:00N 05°23' E 000°35'57 3.0
2018-Jun-16 04:57N 06°00' E 001°19'0 0.0
2018-Jun-16 04:16N 06°00' E 001°19'0 0.0
2018-Jun-16 03:53N 06°00' E 001°19'0 0.0
2018-Jun-16 03:24N 06°00' E 001°19'0 0.0
2018-Jun-16 02:57N 06°00' E 001°19'0 0.0
2018-Jun-16 02:30N 06°00' E 001°19'0 0.0
2018-Jun-16 01:47N 06°00' E 001°19'0 0.0
2018-Jun-16 01:25N 06°00' E 001°19'0 0.0
2018-Jun-16 01:00N 06°00' E 001°19'0 0.0
2018-Jun-16 00:30N 06°00' E 001°19'0 0.0
2018-Jun-15 23:59N 06°00' E 001°19'0 0.0
2018-Jun-15 23:30N 06°00' E 001°19'0 0.0
2018-Jun-15 22:53N 06°00' E 001°19'0 0.0
2018-Jun-15 22:30N 06°00' E 001°19'0 0.0
2018-Jun-15 22:00N 06°00' E 001°19'0 0.0
2018-Jun-15 15:30N 06°00' E 001°19'4 0.1
2018-Jun-13 23:07N 06°04' E 001°18'0 0.0
2018-Jun-13 22:55N 06°04' E 001°18'0 0.0
2018-Jun-13 22:19N 06°04' E 001°18'0 0.0
2018-Jun-13 21:58N 06°04' E 001°18'0 0.0
2018-Jun-13 21:28N 06°04' E 001°18'0 0.0
2018-Jun-13 20:58N 06°04' E 001°18'0 0.0
2018-Jun-12 23:48N 06°04' E 001°18'1 0.5
2018-Jun-12 21:12N 06°03' E 001°19'2 6.0
2018-Jun-12 20:55N 06°01' E 001°19'2 1.1
2018-Jun-12 19:11N 05°60' E 001°19'0 0.0
2018-Jun-12 18:58N 05°60' E 001°19'3 0.1
2018-Jun-11 01:39N 06°01' E 001°16'0 0.0
2018-Jun-11 01:25N 06°01' E 001°16'0 0.0
2018-Jun-11 01:00N 06°01' E 001°16'  
2018-Jun-08 18:47N 06°04' E 001°16'0 0.0
2018-Jun-08 18:26N 06°04' E 001°16'0 0.3
2018-Jun-08 18:00N 06°04' E 001°16'2 3.0
2018-Jun-08 17:30N 06°04' E 001°17'4 2.1
2018-Jun-08 15:46N 06°03' E 001°20'312.2
2018-Jun-08 15:30N 05°59' E 001°20'611.4
2018-Jun-08 15:00N 05°54' E 001°18'612.5
2018-Jun-08 14:30N 05°50' E 001°14'612.7
2018-Jun-08 14:00N 05°46' E 001°09'1112.7
2018-Jun-08 13:09N 05°38' E 001°01'1011.9
2018-Jun-08 12:21N 05°36' E 000°52'612.5
2018-Jun-08 11:50N 05°35' E 000°46'712.3
2018-Jun-08 11:16N 05°35' E 000°38'412.0
2018-Jun-08 10:56N 05°35' E 000°34'511.9
2018-Jun-08 10:30N 05°35' E 000°29'611.9
2018-Jun-08 10:00N 05°34' E 000°23'611.5
2018-Jun-08 09:30N 05°34' E 000°18'611.6
2018-Jun-08 09:00N 05°34' E 000°12'611.3
2018-Jun-08 08:30N 05°34' E 000°06'510.1
2018-Jun-08 08:01N 05°33' E 000°01'1 2.3
2018-Jun-08 07:28N 05°34' E 000°00'0 0.0
2018-Jun-08 06:58N 05°34' E 000°00'0 0.0
2018-Jun-08 06:28N 05°34' E 000°00'0 0.0
2018-Jun-08 05:58N 05°34' E 000°00'0 0.1
2018-Jun-08 05:28N 05°34' E 000°00'0 0.0
2018-Jun-08 04:58N 05°34' E 000°00'0 0.0
2018-Jun-08 04:28N 05°34' E 000°00'0 0.0
2018-Jun-08 03:58N 05°34' E 000°00'0 0.0
2018-Jun-08 03:28N 05°34' E 000°00'0 0.0
2018-Jun-08 02:58N 05°34' E 000°00'0 0.0
2018-Jun-08 02:28N 05°34' E 000°00'0 0.0
2018-Jun-08 01:58N 05°34' E 000°00'0 0.1
2018-Jun-08 01:28N 05°34' E 000°00'0 0.0
2018-Jun-08 01:01N 05°34' E 000°00'0 0.0
2018-Jun-08 00:31N 05°34' E 000°00'0 0.0
2018-Jun-08 00:00N 05°34' E 000°00'0 0.0
2018-Jun-07 23:30N 05°34' E 000°00'0 0.0
2018-Jun-07 23:00N 05°34' E 000°00'0 0.0
2018-Jun-07 22:30N 05°34' E 000°00'0 0.0
2018-Jun-07 22:00N 05°34' E 000°00'0 0.0
2018-Jun-07 21:30N 05°34' E 000°00'0 0.0
2018-Jun-07 21:00N 05°34' E 000°00'0 0.0
2018-Jun-07 20:30N 05°34' E 000°00'0 0.0
2018-Jun-07 20:00N 05°34' E 000°00'0 0.0
2018-Jun-07 19:30N 05°34' E 000°00'0 0.0
2018-Jun-07 19:00N 05°34' E 000°00'0 0.0
2018-Jun-07 18:30N 05°34' E 000°00'0 0.0
2018-Jun-07 18:00N 05°34' E 000°00'0 0.0
2018-Jun-07 17:30N 05°34' E 000°00'0 0.0
2018-Jun-07 17:00N 05°34' E 000°00'0 0.0
2018-Jun-07 16:30N 05°34' E 000°00'0 0.0
2018-Jun-07 16:00N 05°34' E 000°00'0 0.1
2018-Jun-07 15:30N 05°34' E 000°00'0 0.0
2018-Jun-07 15:00N 05°34' E 000°00'0 0.0
2018-Jun-07 14:30N 05°34' E 000°00'0 0.0
2018-Jun-07 14:00N 05°34' E 000°00'0 0.0
2018-Jun-07 13:30N 05°34' E 000°00'0 0.0
2018-Jun-07 13:00N 05°34' E 000°00'0 0.0
2018-Jun-07 12:30N 05°34' E 000°00'0 0.0
2018-Jun-07 12:00N 05°34' E 000°00'0 0.0
2018-Jun-07 11:30N 05°34' E 000°00'0 0.0
2018-Jun-07 11:00N 05°34' E 000°00'0 0.1
2018-Jun-07 10:30N 05°34' E 000°00'0 0.0
2018-Jun-07 10:00N 05°34' E 000°00'0 0.0
2018-Jun-07 09:30N 05°34' E 000°00'0 0.0
2018-Jun-07 09:00N 05°34' E 000°00'0 0.0
2018-Jun-07 08:30N 05°34' E 000°00'0 0.1
2018-Jun-07 08:00N 05°34' E 000°00'0 0.0
2018-Jun-07 07:30N 05°33' E 000°00'0 0.0
2018-Jun-07 07:00N 05°34' E 000°00'0 0.0
2018-Jun-07 06:30N 05°33' E 000°00'0 0.0
2018-Jun-07 06:00N 05°34' E 000°00'0 0.1
2018-Jun-07 05:30N 05°34' E 000°00'0 0.1
2018-Jun-07 05:00N 05°34' E 000°00'0 0.0
2018-Jun-07 04:30N 05°34' E 000°00'0 0.1
2018-Jun-07 04:00N 05°34' E 000°00'0 0.1
2018-Jun-07 03:30N 05°33' E 000°00'0 0.0
2018-Jun-07 03:00N 05°33' E 000°00'  
Track history (hours):
 
Tides and Currents Weather Stations Pressure Air Temp Water Temp Dewpoint Dewpoint Depression Visibility Wind Speed Wind Dir Waves Ship Positions

British Integrity

Last reported at 2018-Jun-17 02:44 UTC. Time now 2018-Jun-25 03:43 UTC.
Position N 05°12' E 000°11'.
Warning: this ship's position is 8 days out of date.

Type: Tanker. MMSI: 232366000.

Date/timePositionNaut miles runAvg speedWind from/ knotsBaromVisibWave heightAir tempDewpointWater temp
2018-Jun-17 02:44N 05°12' E 000°11'2 9.3
2018-Jun-17 02:28N 05°13' E 000°13'5 9.4
2018-Jun-17 01:54N 05°16' E 000°18'4 9.7
2018-Jun-17 01:30N 05°18' E 000°22'5 9.8
2018-Jun-17 00:59N 05°20' E 000°26'5 9.8
2018-Jun-17 00:30N 05°21' E 000°31'5 9.7
2018-Jun-17 00:00N 05°23' E 000°35'57 3.0
2018-Jun-16 04:57N 06°00' E 001°19'0 0.0
2018-Jun-16 04:16N 06°00' E 001°19'0 0.0
2018-Jun-16 03:53N 06°00' E 001°19'0 0.0
2018-Jun-16 03:24N 06°00' E 001°19'0 0.0
2018-Jun-16 02:57N 06°00' E 001°19'0 0.0
2018-Jun-16 02:30N 06°00' E 001°19'0 0.0
2018-Jun-16 01:47N 06°00' E 001°19'0 0.0
2018-Jun-16 01:25N 06°00' E 001°19'0 0.0
2018-Jun-16 01:00N 06°00' E 001°19'0 0.0
2018-Jun-16 00:30N 06°00' E 001°19'0 0.0
2018-Jun-15 23:59N 06°00' E 001°19'0 0.0
2018-Jun-15 23:30N 06°00' E 001°19'0 0.0
2018-Jun-15 22:53N 06°00' E 001°19'0 0.0
2018-Jun-15 22:30N 06°00' E 001°19'0 0.0
2018-Jun-15 22:00N 06°00' E 001°19'0 0.0
2018-Jun-15 15:30N 06°00' E 001°19'4 0.1
2018-Jun-13 23:07N 06°04' E 001°18'0 0.0
2018-Jun-13 22:55N 06°04' E 001°18'0 0.0
2018-Jun-13 22:19N 06°04' E 001°18'0 0.0
2018-Jun-13 21:58N 06°04' E 001°18'0 0.0
2018-Jun-13 21:28N 06°04' E 001°18'0 0.0
2018-Jun-13 20:58N 06°04' E 001°18'0 0.0
2018-Jun-12 23:48N 06°04' E 001°18'1 0.5
2018-Jun-12 21:12N 06°03' E 001°19'2 6.0
2018-Jun-12 20:55N 06°01' E 001°19'2 1.1
2018-Jun-12 19:11N 05°60' E 001°19'0 0.0
2018-Jun-12 18:58N 05°60' E 001°19'3 0.1
2018-Jun-11 01:39N 06°01' E 001°16'0 0.0
2018-Jun-11 01:25N 06°01' E 001°16'0 0.0
2018-Jun-11 01:00N 06°01' E 001°16'  
2018-Jun-08 18:47N 06°04' E 001°16'0 0.0
2018-Jun-08 18:26N 06°04' E 001°16'0 0.3
2018-Jun-08 18:00N 06°04' E 001°16'2 3.0
2018-Jun-08 17:30N 06°04' E 001°17'4 2.1
2018-Jun-08 15:46N 06°03' E 001°20'312.2
2018-Jun-08 15:30N 05°59' E 001°20'611.4
2018-Jun-08 15:00N 05°54' E 001°18'612.5
2018-Jun-08 14:30N 05°50' E 001°14'612.7
2018-Jun-08 14:00N 05°46' E 001°09'1112.7
2018-Jun-08 13:09N 05°38' E 001°01'1011.9
2018-Jun-08 12:21N 05°36' E 000°52'612.5
2018-Jun-08 11:50N 05°35' E 000°46'712.3
2018-Jun-08 11:16N 05°35' E 000°38'412.0
2018-Jun-08 10:56N 05°35' E 000°34'511.9
2018-Jun-08 10:30N 05°35' E 000°29'611.9
2018-Jun-08 10:00N 05°34' E 000°23'611.5
2018-Jun-08 09:30N 05°34' E 000°18'611.6
2018-Jun-08 09:00N 05°34' E 000°12'611.3
2018-Jun-08 08:30N 05°34' E 000°06'510.1
2018-Jun-08 08:01N 05°33' E 000°01'1 2.3
2018-Jun-08 07:28N 05°34' E 000°00'0 0.0
2018-Jun-08 06:58N 05°34' E 000°00'0 0.0
2018-Jun-08 06:28N 05°34' E 000°00'0 0.0
2018-Jun-08 05:58N 05°34' E 000°00'0 0.1
2018-Jun-08 05:28N 05°34' E 000°00'0 0.0
2018-Jun-08 04:58N 05°34' E 000°00'0 0.0
2018-Jun-08 04:28N 05°34' E 000°00'0 0.0
2018-Jun-08 03:58N 05°34' E 000°00'0 0.0
2018-Jun-08 03:28N 05°34' E 000°00'0 0.0
2018-Jun-08 02:58N 05°34' E 000°00'0 0.0
2018-Jun-08 02:28N 05°34' E 000°00'0 0.0
2018-Jun-08 01:58N 05°34' E 000°00'0 0.1
2018-Jun-08 01:28N 05°34' E 000°00'0 0.0
2018-Jun-08 01:01N 05°34' E 000°00'0 0.0
2018-Jun-08 00:31N 05°34' E 000°00'0 0.0
2018-Jun-08 00:00N 05°34' E 000°00'0 0.0
2018-Jun-07 23:30N 05°34' E 000°00'0 0.0
2018-Jun-07 23:00N 05°34' E 000°00'0 0.0
2018-Jun-07 22:30N 05°34' E 000°00'0 0.0
2018-Jun-07 22:00N 05°34' E 000°00'0 0.0
2018-Jun-07 21:30N 05°34' E 000°00'0 0.0
2018-Jun-07 21:00N 05°34' E 000°00'0 0.0
2018-Jun-07 20:30N 05°34' E 000°00'0 0.0
2018-Jun-07 20:00N 05°34' E 000°00'0 0.0
2018-Jun-07 19:30N 05°34' E 000°00'0 0.0
2018-Jun-07 19:00N 05°34' E 000°00'0 0.0
2018-Jun-07 18:30N 05°34' E 000°00'0 0.0
2018-Jun-07 18:00N 05°34' E 000°00'0 0.0
2018-Jun-07 17:30N 05°34' E 000°00'0 0.0
2018-Jun-07 17:00N 05°34' E 000°00'0 0.0
2018-Jun-07 16:30N 05°34' E 000°00'0 0.0
2018-Jun-07 16:00N 05°34' E 000°00'0 0.1
2018-Jun-07 15:30N 05°34' E 000°00'0 0.0
2018-Jun-07 15:00N 05°34' E 000°00'0 0.0
2018-Jun-07 14:30N 05°34' E 000°00'0 0.0
2018-Jun-07 14:00N 05°34' E 000°00'0 0.0
2018-Jun-07 13:30N 05°34' E 000°00'0 0.0
2018-Jun-07 13:00N 05°34' E 000°00'0 0.0
2018-Jun-07 12:30N 05°34' E 000°00'0 0.0
2018-Jun-07 12:00N 05°34' E 000°00'0 0.0
2018-Jun-07 11:30N 05°34' E 000°00'0 0.0
2018-Jun-07 11:00N 05°34' E 000°00'0 0.1
2018-Jun-07 10:30N 05°34' E 000°00'0 0.0
2018-Jun-07 10:00N 05°34' E 000°00'0 0.0
2018-Jun-07 09:30N 05°34' E 000°00'0 0.0
2018-Jun-07 09:00N 05°34' E 000°00'0 0.0
2018-Jun-07 08:30N 05°34' E 000°00'0 0.1
2018-Jun-07 08:00N 05°34' E 000°00'0 0.0
2018-Jun-07 07:30N 05°33' E 000°00'0 0.0
2018-Jun-07 07:00N 05°34' E 000°00'0 0.0
2018-Jun-07 06:30N 05°33' E 000°00'0 0.0
2018-Jun-07 06:00N 05°34' E 000°00'0 0.1
2018-Jun-07 05:30N 05°34' E 000°00'0 0.1
2018-Jun-07 05:00N 05°34' E 000°00'0 0.0
2018-Jun-07 04:30N 05°34' E 000°00'0 0.1
2018-Jun-07 04:00N 05°34' E 000°00'0 0.1
2018-Jun-07 03:30N 05°33' E 000°00'0 0.0
2018-Jun-07 03:00N 05°33' E 000°00'  

Dump ship's entire track history